sensor_id;sensor_type;location;lat;lon;timestamp;pressure;altitude;pressure_sealevel;temperature;humidity
57568;BME280;43403;51.948;5.922;2023-04-21T00:01:12;101529.78;;;10.19;100.00
57568;BME280;43403;51.948;5.922;2023-04-21T00:03:38;101527.41;;;10.16;100.00
57568;BME280;43403;51.948;5.922;2023-04-21T00:06:07;101518.84;;;10.14;100.00
57568;BME280;43403;51.948;5.922;2023-04-21T00:08:35;101523.00;;;10.16;100.00
57568;BME280;43403;51.948;5.922;2023-04-21T00:11:08;101523.00;;;10.16;100.00
57568;BME280;43403;51.948;5.922;2023-04-21T00:13:35;101519.56;;;10.16;100.00
57568;BME280;43403;51.948;5.922;2023-04-21T00:16:02;101513.59;;;10.14;100.00
57568;BME280;43403;51.948;5.922;2023-04-21T00:18:29;101513.59;;;10.14;100.00
57568;BME280;43403;51.948;5.922;2023-04-21T00:20:55;101507.50;;;10.13;100.00
57568;BME280;43403;51.948;5.922;2023-04-21T00:23:21;101511.00;;;10.14;100.00
57568;BME280;43403;51.948;5.922;2023-04-21T00:25:48;101502.41;;;10.12;100.00
57568;BME280;43403;51.948;5.922;2023-04-21T00:28:15;101497.28;;;10.10;100.00
57568;BME280;43403;51.948;5.922;2023-04-21T00:30:41;101491.06;;;10.11;100.00
57568;BME280;43403;51.948;5.922;2023-04-21T00:33:07;101487.38;;;10.14;100.00
57568;BME280;43403;51.948;5.922;2023-04-21T00:35:34;101470.63;;;10.05;100.00
57568;BME280;43403;51.948;5.922;2023-04-21T00:38:00;101475.63;;;10.08;100.00
57568;BME280;43403;51.948;5.922;2023-04-21T00:40:27;101481.81;;;10.07;100.00
57568;BME280;43403;51.948;5.922;2023-04-21T00:42:54;101484.69;;;10.04;100.00
57568;BME280;43403;51.948;5.922;2023-04-21T00:45:20;101474.56;;;9.99;100.00
57568;BME280;43403;51.948;5.922;2023-04-21T00:47:46;101466.88;;;9.98;100.00
57568;BME280;43403;51.948;5.922;2023-04-21T00:50:13;101474.72;;;9.98;100.00
57568;BME280;43403;51.948;5.922;2023-04-21T00:52:41;101473.75;;;9.99;100.00
57568;BME280;43403;51.948;5.922;2023-04-21T00:55:09;101465.78;;;10.00;100.00
57568;BME280;43403;51.948;5.922;2023-04-21T00:57:36;101460.66;;;9.99;100.00
57568;BME280;43403;51.948;5.922;2023-04-21T01:00:06;101460.78;;;9.97;100.00
57568;BME280;43403;51.948;5.922;2023-04-21T01:02:35;101459.44;;;10.03;100.00
57568;BME280;43403;51.948;5.922;2023-04-21T01:05:04;101455.88;;;10.04;100.00
57568;BME280;43403;51.948;5.922;2023-04-21T01:07:34;101455.47;;;10.08;100.00
57568;BME280;43403;51.948;5.922;2023-04-21T01:10:02;101449.41;;;10.08;100.00
57568;BME280;43403;51.948;5.922;2023-04-21T01:12:29;101448.59;;;10.07;100.00
57568;BME280;43403;51.948;5.922;2023-04-21T01:14:55;101445.22;;;10.05;100.00
57568;BME280;43403;51.948;5.922;2023-04-21T01:17:22;101447.03;;;10.05;100.00
57568;BME280;43403;51.948;5.922;2023-04-21T01:19:49;101439.56;;;10.00;100.00
57568;BME280;43403;51.948;5.922;2023-04-21T01:22:16;101437.88;;;9.99;100.00
57568;BME280;43403;51.948;5.922;2023-04-21T01:24:46;101437.88;;;9.99;100.00
57568;BME280;43403;51.948;5.922;2023-04-21T01:27:18;101427.56;;;9.98;100.00
57568;BME280;43403;51.948;5.922;2023-04-21T01:29:48;101431.00;;;9.98;100.00
57568;BME280;43403;51.948;5.922;2023-04-21T01:32:17;101437.75;;;10.01;100.00
57568;BME280;43403;51.948;5.922;2023-04-21T01:34:45;101435.97;;;10.01;100.00
57568;BME280;43403;51.948;5.922;2023-04-21T01:37:14;101432.41;;;10.02;100.00
57568;BME280;43403;51.948;5.922;2023-04-21T01:39:43;101439.44;;;10.02;100.00
57568;BME280;43403;51.948;5.922;2023-04-21T01:42:11;101436.13;;;10.00;100.00
57568;BME280;43403;51.948;5.922;2023-04-21T01:44:38;101445.63;;;10.01;100.00
57568;BME280;43403;51.948;5.922;2023-04-21T01:47:05;101446.84;;;9.97;100.00
57568;BME280;43403;51.948;5.922;2023-04-21T01:49:32;101438.50;;;9.92;100.00
57568;BME280;43403;51.948;5.922;2023-04-21T01:51:58;101440.44;;;9.89;100.00
57568;BME280;43403;51.948;5.922;2023-04-21T01:54:25;101449.38;;;9.87;100.00
57568;BME280;43403;51.948;5.922;2023-04-21T01:56:51;101453.94;;;9.85;100.00
57568;BME280;43403;51.948;5.922;2023-04-21T01:59:18;101436.28;;;9.87;100.00
57568;BME280;43403;51.948;5.922;2023-04-21T02:01:45;101434.38;;;9.89;100.00
57568;BME280;43403;51.948;5.922;2023-04-21T02:04:11;101425.69;;;9.88;100.00
57568;BME280;43403;51.948;5.922;2023-04-21T02:06:38;101428.53;;;9.85;100.00
57568;BME280;43403;51.948;5.922;2023-04-21T02:09:04;101424.16;;;9.86;100.00
57568;BME280;43403;51.948;5.922;2023-04-21T02:11:31;101418.75;;;9.87;100.00
57568;BME280;43403;51.948;5.922;2023-04-21T02:13:57;101425.91;;;9.85;100.00
57568;BME280;43403;51.948;5.922;2023-04-21T02:16:24;101426.78;;;9.86;100.00
57568;BME280;43403;51.948;5.922;2023-04-21T02:18:54;101425.81;;;9.87;100.00
57568;BME280;43403;51.948;5.922;2023-04-21T02:21:23;101430.22;;;9.86;100.00
57568;BME280;43403;51.948;5.922;2023-04-21T02:23:50;101433.66;;;9.87;100.00
57568;BME280;43403;51.948;5.922;2023-04-21T02:26:17;101423.31;;;9.85;100.00
57568;BME280;43403;51.948;5.922;2023-04-21T02:28:44;101422.47;;;9.85;100.00
57568;BME280;43403;51.948;5.922;2023-04-21T02:31:11;101414.38;;;9.88;100.00
57568;BME280;43403;51.948;5.922;2023-04-21T02:33:37;101402.91;;;9.89;100.00
57568;BME280;43403;51.948;5.922;2023-04-21T02:36:04;101404.31;;;9.93;100.00
57568;BME280;43403;51.948;5.922;2023-04-21T02:38:31;101404.09;;;9.96;100.00
57568;BME280;43403;51.948;5.922;2023-04-21T02:40:57;101403.97;;;9.98;100.00
57568;BME280;43403;51.948;5.922;2023-04-21T02:43:24;101404.09;;;9.96;100.00
57568;BME280;43403;51.948;5.922;2023-04-21T02:45:51;101396.34;;;9.95;100.00
57568;BME280;43403;51.948;5.922;2023-04-21T02:48:17;101401.47;;;9.96;100.00
57568;BME280;43403;51.948;5.922;2023-04-21T02:50:49;101416.34;;;9.96;100.00
57568;BME280;43403;51.948;5.922;2023-04-21T02:53:16;101421.16;;;9.90;100.00
57568;BME280;43403;51.948;5.922;2023-04-21T02:55:42;101425.06;;;9.96;100.00
57568;BME280;43403;51.948;5.922;2023-04-21T02:58:09;101404.31;;;9.93;100.00
57568;BME280;43403;51.948;5.922;2023-04-21T03:00:36;101407.91;;;9.92;100.00
57568;BME280;43403;51.948;5.922;2023-04-21T03:03:03;101389.00;;;9.88;100.00
57568;BME280;43403;51.948;5.922;2023-04-21T03:05:30;101396.75;;;9.90;100.00
57568;BME280;43403;51.948;5.922;2023-04-21T03:07:56;101394.25;;;9.88;100.00
57568;BME280;43403;51.948;5.922;2023-04-21T03:10:23;101407.47;;;9.87;100.00
57568;BME280;43403;51.948;5.922;2023-04-21T03:12:49;101411.59;;;9.89;100.00
57568;BME280;43403;51.948;5.922;2023-04-21T03:15:16;101394.34;;;9.87;100.00
57568;BME280;43403;51.948;5.922;2023-04-21T03:17:43;101395.19;;;9.87;100.00
57568;BME280;43403;51.948;5.922;2023-04-21T03:20:09;101392.72;;;9.86;100.00
57568;BME280;43403;51.948;5.922;2023-04-21T03:22:38;101397.97;;;9.86;100.00
57568;BME280;43403;51.948;5.922;2023-04-21T03:25:04;101391.03;;;9.85;100.00
57568;BME280;43403;51.948;5.922;2023-04-21T03:27:33;101391.84;;;9.85;100.00
57568;BME280;43403;51.948;5.922;2023-04-21T03:30:00;101385.91;;;9.83;100.00
57568;BME280;43403;51.948;5.922;2023-04-21T03:32:26;101386.91;;;9.82;100.00
57568;BME280;43403;51.948;5.922;2023-04-21T03:34:53;101387.31;;;9.87;100.00
57568;BME280;43403;51.948;5.922;2023-04-21T03:37:19;101384.47;;;9.90;100.00
57568;BME280;43403;51.948;5.922;2023-04-21T03:39:46;101377.53;;;9.89;100.00
57568;BME280;43403;51.948;5.922;2023-04-21T03:42:12;101389.13;;;9.87;100.00
57568;BME280;43403;51.948;5.922;2023-04-21T03:44:39;101380.31;;;9.88;100.00
57568;BME280;43403;51.948;5.922;2023-04-21T03:47:05;101385.56;;;9.88;100.00
57568;BME280;43403;51.948;5.922;2023-04-21T03:49:35;101387.06;;;9.90;100.00
57568;BME280;43403;51.948;5.922;2023-04-21T03:52:02;101379.22;;;9.90;100.00
57568;BME280;43403;51.948;5.922;2023-04-21T03:54:28;101384.47;;;9.90;100.00
57568;BME280;43403;51.948;5.922;2023-04-21T03:56:55;101386.09;;;9.92;100.00
57568;BME280;43403;51.948;5.922;2023-04-21T03:59:21;101388.72;;;9.92;100.00
57568;BME280;43403;51.948;5.922;2023-04-21T04:01:47;101384.47;;;9.90;100.00
57568;BME280;43403;51.948;5.922;2023-04-21T04:04:14;101388.03;;;9.89;100.00
57568;BME280;43403;51.948;5.922;2023-04-21T04:06:41;101374.81;;;9.91;100.00
57568;BME280;43403;51.948;5.922;2023-04-21T04:09:07;101371.94;;;9.94;100.00
57568;BME280;43403;51.948;5.922;2023-04-21T04:11:34;101376.31;;;9.94;100.00
57568;BME280;43403;51.948;5.922;2023-04-21T04:14:01;101381.44;;;9.95;100.00
57568;BME280;43403;51.948;5.922;2023-04-21T04:16:28;101380.38;;;9.98;100.00
57568;BME280;43403;51.948;5.922;2023-04-21T04:18:54;101375.84;;;10.00;100.00
57568;BME280;43403;51.948;5.922;2023-04-21T04:21:21;101375.13;;;9.98;100.00
57568;BME280;43403;51.948;5.922;2023-04-21T04:23:49;101375.84;;;10.00;100.00
57568;BME280;43403;51.948;5.922;2023-04-21T04:26:17;101369.63;;;10.01;100.00
57568;BME280;43403;51.948;5.922;2023-04-21T04:28:44;101364.66;;;9.98;100.00
57568;BME280;43403;51.948;5.922;2023-04-21T04:31:13;101360.59;;;9.94;100.00
57568;BME280;43403;51.948;5.922;2023-04-21T04:33:40;101358.94;;;9.93;100.00
57568;BME280;43403;51.948;5.922;2023-04-21T04:36:08;101365.13;;;9.92;100.00
57568;BME280;43403;51.948;5.922;2023-04-21T04:38:34;101355.50;;;9.92;100.00
57568;BME280;43403;51.948;5.922;2023-04-21T04:41:03;101362.78;;;9.88;100.00
57568;BME280;43403;51.948;5.922;2023-04-21T04:43:30;101367.91;;;9.90;100.00
57568;BME280;43403;51.948;5.922;2023-04-21T04:45:59;101366.00;;;9.92;100.00
57568;BME280;43403;51.948;5.922;2023-04-21T04:48:25;101362.66;;;9.90;100.00
57568;BME280;43403;51.948;5.922;2023-04-21T04:50:51;101362.78;;;9.88;100.00
57568;BME280;43403;51.948;5.922;2023-04-21T04:53:18;101359.19;;;9.89;100.00
57568;BME280;43403;51.948;5.922;2023-04-21T04:55:44;101360.59;;;9.94;100.00
57568;BME280;43403;51.948;5.922;2023-04-21T04:58:12;101366.81;;;9.93;100.00
57568;BME280;43403;51.948;5.922;2023-04-21T05:00:39;101370.38;;;9.92;100.00
57568;BME280;43403;51.948;5.922;2023-04-21T05:03:05;101371.22;;;9.92;100.00
57568;BME280;43403;51.948;5.922;2023-04-21T05:05:32;101378.69;;;9.97;100.00
57568;BME280;43403;51.948;5.922;2023-04-21T05:07:58;101377.88;;;9.96;100.00
57568;BME280;43403;51.948;5.922;2023-04-21T05:10:25;101385.34;;;10.01;100.00
57568;BME280;43403;51.948;5.922;2023-04-21T05:12:51;101369.63;;;10.01;100.00
57568;BME280;43403;51.948;5.922;2023-04-21T05:15:18;101364.50;;;9.99;100.00
57568;BME280;43403;51.948;5.922;2023-04-21T05:17:44;101371.13;;;10.03;100.00
57568;BME280;43403;51.948;5.922;2023-04-21T05:20:11;101370.31;;;10.03;100.00
57568;BME280;43403;51.948;5.922;2023-04-21T05:22:37;101377.94;;;10.06;100.00
57568;BME280;43403;51.948;5.922;2023-04-21T05:25:05;101388.28;;;10.07;100.00
57568;BME280;43403;51.948;5.922;2023-04-21T05:27:31;101393.66;;;10.06;100.00
57568;BME280;43403;51.948;5.922;2023-04-21T05:29:59;101403.16;;;10.07;100.00
57568;BME280;43403;51.948;5.922;2023-04-21T05:32:26;101394.59;;;10.05;100.00
57568;BME280;43403;51.948;5.922;2023-04-21T05:34:52;101394.59;;;10.05;100.00
57568;BME280;43403;51.948;5.922;2023-04-21T05:37:19;101405.44;;;10.12;100.00
57568;BME280;43403;51.948;5.922;2023-04-21T05:39:45;101407.00;;;10.03;100.00
57568;BME280;43403;51.948;5.922;2023-04-21T05:42:12;101405.09;;;10.05;100.00
57568;BME280;43403;51.948;5.922;2023-04-21T05:44:38;101411.03;;;10.07;100.00
57568;BME280;43403;51.948;5.922;2023-04-21T05:47:05;101407.84;;;10.03;100.00
57568;BME280;43403;51.948;5.922;2023-04-21T05:49:31;101402.09;;;10.09;100.00
57568;BME280;43403;51.948;5.922;2023-04-21T05:51:58;101406.13;;;10.14;100.00
57568;BME280;43403;51.948;5.922;2023-04-21T05:54:24;101401.59;;;10.16;100.00
57568;BME280;43403;51.948;5.922;2023-04-21T05:56:51;101404.63;;;10.21;100.00
57568;BME280;43403;51.948;5.922;2023-04-21T05:59:17;101409.75;;;10.22;100.00
57568;BME280;43403;51.948;5.922;2023-04-21T06:01:44;101413.78;;;10.26;100.00
57568;BME280;43403;51.948;5.922;2023-04-21T06:04:10;101407.72;;;10.26;100.00
57568;BME280;43403;51.948;5.922;2023-04-21T06:06:37;101402.34;;;10.27;100.00
57568;BME280;43403;51.948;5.922;2023-04-21T06:09:04;101400.41;;;10.29;100.00
57568;BME280;43403;51.948;5.922;2023-04-21T06:11:30;101411.97;;;10.27;100.00
57568;BME280;43403;51.948;5.922;2023-04-21T06:13:58;101397.78;;;10.29;100.00
57568;BME280;43403;51.948;5.922;2023-04-21T06:16:25;101399.91;;;10.36;100.00
57568;BME280;43403;51.948;5.922;2023-04-21T06:18:52;101396.19;;;10.38;100.00
57568;BME280;43403;51.948;5.922;2023-04-21T06:21:18;101383.91;;;10.39;100.00
57568;BME280;43403;51.948;5.922;2023-04-21T06:23:45;101393.03;;;10.44;100.00
57568;BME280;43403;51.948;5.922;2023-04-21T06:26:12;101397.06;;;10.48;100.00
57568;BME280;43403;51.948;5.922;2023-04-21T06:28:39;101392.13;;;10.55;100.00
57568;BME280;43403;51.948;5.922;2023-04-21T06:31:05;101392.84;;;10.57;100.00
57568;BME280;43403;51.948;5.922;2023-04-21T06:33:34;101391.72;;;10.60;100.00
57568;BME280;43403;51.948;5.922;2023-04-21T06:36:01;101383.72;;;10.61;100.00
57568;BME280;43403;51.948;5.922;2023-04-21T06:38:27;101386.81;;;10.66;100.00
57568;BME280;43403;51.948;5.922;2023-04-21T06:40:54;101388.03;;;10.72;100.00
57568;BME280;43403;51.948;5.922;2023-04-21T06:43:21;101390.97;;;10.79;100.00
57568;BME280;43403;51.948;5.922;2023-04-21T06:45:47;101393.31;;;10.82;100.00
57568;BME280;43403;51.948;5.922;2023-04-21T06:48:13;101391.00;;;10.88;100.00
57568;BME280;43403;51.948;5.922;2023-04-21T06:50:40;101384.94;;;10.88;100.00
57568;BME280;43403;51.948;5.922;2023-04-21T06:53:09;101385.34;;;10.93;100.00
57568;BME280;43403;51.948;5.922;2023-04-21T06:55:37;101383.53;;;10.94;100.00
57568;BME280;43403;51.948;5.922;2023-04-21T06:58:03;101385.78;;;10.98;100.00
57568;BME280;43403;51.948;5.922;2023-04-21T07:00:29;101381.34;;;10.99;100.00
57568;BME280;43403;51.948;5.922;2023-04-21T07:02:56;101395.47;;;11.07;100.00
57568;BME280;43403;51.948;5.922;2023-04-21T07:05:22;101385.91;;;11.06;100.00
57568;BME280;43403;51.948;5.922;2023-04-21T07:07:49;101387.31;;;11.11;100.00
57568;BME280;43403;51.948;5.922;2023-04-21T07:10:16;101393.66;;;11.08;100.00
57568;BME280;43403;51.948;5.922;2023-04-21T07:12:45;101393.53;;;11.10;100.00
57568;BME280;43403;51.948;5.922;2023-04-21T07:15:11;101402.66;;;11.05;100.00
57568;BME280;43403;51.948;5.922;2023-04-21T07:17:38;101392.41;;;11.02;100.00
57568;BME280;43403;51.948;5.922;2023-04-21T07:20:05;101405.13;;;11.07;100.00
57568;BME280;43403;51.948;5.922;2023-04-21T07:22:32;101404.44;;;11.05;100.00
57568;BME280;43403;51.948;5.922;2023-04-21T07:25:03;101402.25;;;11.10;100.00
57568;BME280;43403;51.948;5.922;2023-04-21T07:27:33;101394.94;;;11.14;100.00
57568;BME280;43403;51.948;5.922;2023-04-21T07:30:02;101395.19;;;11.20;100.00
57568;BME280;43403;51.948;5.922;2023-04-21T07:32:29;101394.25;;;11.21;100.00
57568;BME280;43403;51.948;5.922;2023-04-21T07:34:56;101401.97;;;11.23;100.00
57568;BME280;43403;51.948;5.922;2023-04-21T07:37:23;101384.13;;;11.26;100.00
57568;BME280;43403;51.948;5.922;2023-04-21T07:39:50;101391.63;;;11.31;100.00
57568;BME280;43403;51.948;5.922;2023-04-21T07:42:17;101383.47;;;11.34;100.00
57568;BME280;43403;51.948;5.922;2023-04-21T07:44:43;101398.28;;;11.45;100.00
57568;BME280;43403;51.948;5.922;2023-04-21T07:47:10;101401.97;;;11.52;100.00
57568;BME280;43403;51.948;5.922;2023-04-21T07:49:36;101392.31;;;11.62;100.00
57568;BME280;43403;51.948;5.922;2023-04-21T07:52:03;101388.28;;;11.68;100.00
57568;BME280;43403;51.948;5.922;2023-04-21T07:54:30;101385.50;;;11.79;100.00
57568;BME280;43403;51.948;5.922;2023-04-21T07:56:57;101386.63;;;11.86;100.00
57568;BME280;43403;51.948;5.922;2023-04-21T07:59:23;101390.50;;;12.02;100.00
57568;BME280;43403;51.948;5.922;2023-04-21T08:01:50;101385.38;;;12.00;100.00
57568;BME280;43403;51.948;5.922;2023-04-21T08:04:17;101384.22;;;12.13;100.00
57568;BME280;43403;51.948;5.922;2023-04-21T08:06:44;101375.63;;;12.20;100.00
57568;BME280;43403;51.948;5.922;2023-04-21T08:09:11;101384.72;;;12.36;100.00
57568;BME280;43403;51.948;5.922;2023-04-21T08:11:37;101383.41;;;12.50;100.00
57568;BME280;43403;51.948;5.922;2023-04-21T08:14:04;101374.34;;;12.62;100.00
57568;BME280;43403;51.948;5.922;2023-04-21T08:16:30;101381.59;;;12.78;100.00
57568;BME280;43403;51.948;5.922;2023-04-21T08:18:57;101379.84;;;12.96;100.00
57568;BME280;43403;51.948;5.922;2023-04-21T08:21:23;101388.50;;;13.06;100.00
57568;BME280;43403;51.948;5.922;2023-04-21T08:23:50;101380.63;;;13.24;100.00
57568;BME280;43403;51.948;5.922;2023-04-21T08:26:17;101382.09;;;13.37;100.00
57568;BME280;43403;51.948;5.922;2023-04-21T08:28:46;101381.41;;;13.53;100.00
57568;BME280;43403;51.948;5.922;2023-04-21T08:31:16;101393.72;;;13.52;100.00
57568;BME280;43403;51.948;5.922;2023-04-21T08:33:42;101386.28;;;13.48;100.00
57568;BME280;43403;51.948;5.922;2023-04-21T08:36:27;101389.94;;;13.47;100.00
57568;BME280;43403;51.948;5.922;2023-04-21T08:38:55;101383.38;;;13.51;100.00
57568;BME280;43403;51.948;5.922;2023-04-21T08:41:23;101380.25;;;13.55;100.00
57568;BME280;43403;51.948;5.922;2023-04-21T08:43:50;101391.34;;;13.59;100.00
57568;BME280;43403;51.948;5.922;2023-04-21T08:46:17;101381.63;;;13.59;100.00
57568;BME280;43403;51.948;5.922;2023-04-21T08:48:45;101385.84;;;13.70;100.00
57568;BME280;43403;51.948;5.922;2023-04-21T08:51:15;101389.06;;;13.82;100.00
57568;BME280;43403;51.948;5.922;2023-04-21T08:53:43;101392.63;;;13.99;100.00
57568;BME280;43403;51.948;5.922;2023-04-21T08:56:10;101377.78;;;13.98;100.00
57568;BME280;43403;51.948;5.922;2023-04-21T08:58:37;101383.78;;;14.08;100.00
57568;BME280;43403;51.948;5.922;2023-04-21T09:01:04;101383.16;;;14.14;100.00
57568;BME280;43403;51.948;5.922;2023-04-21T09:03:31;101376.94;;;14.23;100.00
57568;BME280;43403;51.948;5.922;2023-04-21T09:06:05;101377.63;;;14.26;100.00
57568;BME280;43403;51.948;5.922;2023-04-21T09:08:35;101372.97;;;14.19;100.00
57568;BME280;43403;51.948;5.922;2023-04-21T09:11:02;101386.19;;;14.28;100.00
57568;BME280;43403;51.948;5.922;2023-04-21T09:13:35;101388.34;;;14.32;100.00
57568;BME280;43403;51.948;5.922;2023-04-21T09:16:04;101380.28;;;14.34;100.00
57568;BME280;43403;51.948;5.922;2023-04-21T09:18:36;101383.47;;;14.46;100.00
57568;BME280;43403;51.948;5.922;2023-04-21T09:21:11;101377.06;;;14.48;100.00
57568;BME280;43403;51.948;5.922;2023-04-21T09:23:49;101380.44;;;14.58;100.00
57568;BME280;43403;51.948;5.922;2023-04-21T09:26:17;101372.69;;;14.65;100.00
57568;BME280;43403;51.948;5.922;2023-04-21T09:28:46;101372.41;;;14.68;100.00
57568;BME280;43403;51.948;5.922;2023-04-21T09:31:18;101361.19;;;14.74;100.00
57568;BME280;43403;51.948;5.922;2023-04-21T09:36:26;101368.31;;;14.82;100.00
57568;BME280;43403;51.948;5.922;2023-04-21T09:41:40;101368.63;;;14.79;100.00
57568;BME280;43403;51.948;5.922;2023-04-21T09:44:06;101373.91;;;14.79;100.00
57568;BME280;43403;51.948;5.922;2023-04-21T09:46:34;101366.84;;;14.96;100.00
57568;BME280;43403;51.948;5.922;2023-04-21T09:49:02;101372.81;;;14.98;100.00
57568;BME280;43403;51.948;5.922;2023-04-21T09:51:30;101369.16;;;15.07;100.00
57568;BME280;43403;51.948;5.922;2023-04-21T09:54:20;101369.22;;;15.15;100.00
57568;BME280;43403;51.948;5.922;2023-04-21T09:56:54;101369.72;;;15.27;100.00
57568;BME280;43403;51.948;5.922;2023-04-21T09:59:31;101363.59;;;15.27;100.00
57568;BME280;43403;51.948;5.922;2023-04-21T10:01:59;101358.63;;;15.23;100.00
57568;BME280;43403;51.948;5.922;2023-04-21T10:04:27;101353.19;;;15.25;100.00
57568;BME280;43403;51.948;5.922;2023-04-21T10:06:54;101354.81;;;15.42;100.00
57568;BME280;43403;51.948;5.922;2023-04-21T10:09:22;101353.19;;;15.66;100.00
57568;BME280;43403;51.948;5.922;2023-04-21T10:11:51;101353.00;;;15.68;100.00
57568;BME280;43403;51.948;5.922;2023-04-21T10:14:19;101344.59;;;15.72;100.00
57568;BME280;43403;51.948;5.922;2023-04-21T10:17:02;101343.13;;;15.78;100.00
57568;BME280;43403;51.948;5.922;2023-04-21T10:19:29;101343.09;;;15.86;100.00
57568;BME280;43403;51.948;5.922;2023-04-21T10:22:01;101349.25;;;15.78;100.00
57568;BME280;43403;51.948;5.922;2023-04-21T10:24:28;101346.75;;;15.77;100.00
57568;BME280;43403;51.948;5.922;2023-04-21T10:26:58;101340.97;;;15.90;100.00
57568;BME280;43403;51.948;5.922;2023-04-21T10:29:29;101348.31;;;16.11;100.00
57568;BME280;43403;51.948;5.922;2023-04-21T10:32:16;101343.75;;;16.44;100.00
57568;BME280;43403;51.948;5.922;2023-04-21T10:34:56;101339.75;;;16.48;99.19
57568;BME280;43403;51.948;5.922;2023-04-21T10:37:23;101330.22;;;16.39;95.23
57568;BME280;43403;51.948;5.922;2023-04-21T10:39:53;101345.44;;;16.37;98.12
57568;BME280;43403;51.948;5.922;2023-04-21T10:42:25;101346.28;;;16.29;97.83
57568;BME280;43403;51.948;5.922;2023-04-21T10:47:36;101333.56;;;16.33;99.58
57568;BME280;43403;51.948;5.922;2023-04-21T10:52:45;101312.66;;;16.38;100.00
57568;BME280;43403;51.948;5.922;2023-04-21T10:55:12;101318.56;;;16.48;99.53
57568;BME280;43403;51.948;5.922;2023-04-21T10:57:42;101319.63;;;16.39;98.64
57568;BME280;43403;51.948;5.922;2023-04-21T11:00:12;101318.31;;;16.27;97.96
57568;BME280;43403;51.948;5.922;2023-04-21T11:02:41;101322.81;;;16.26;99.39
57568;BME280;43403;51.948;5.922;2023-04-21T11:05:10;101318.38;;;16.18;99.27
57568;BME280;43403;51.948;5.922;2023-04-21T11:07:37;101316.72;;;16.17;100.00
57568;BME280;43403;51.948;5.922;2023-04-21T11:10:07;101309.97;;;16.07;100.00
57568;BME280;43403;51.948;5.922;2023-04-21T11:12:36;101311.81;;;16.06;100.00
57568;BME280;43403;51.948;5.922;2023-04-21T11:15:06;101303.22;;;16.04;98.55
57568;BME280;43403;51.948;5.922;2023-04-21T11:17:34;101297.88;;;16.12;98.06
57568;BME280;43403;51.948;5.922;2023-04-21T11:20:01;101309.41;;;16.28;97.65
57568;BME280;43403;51.948;5.922;2023-04-21T11:22:29;101298.19;;;16.57;96.93
57568;BME280;43403;51.948;5.922;2023-04-21T11:24:56;101297.59;;;16.70;92.74
57568;BME280;43403;51.948;5.922;2023-04-21T11:27:26;101296.72;;;16.86;93.58
57568;BME280;43403;51.948;5.922;2023-04-21T11:29:54;101292.34;;;16.93;92.67
57568;BME280;43403;51.948;5.922;2023-04-21T11:32:20;101280.28;;;16.90;89.17
57568;BME280;43403;51.948;5.922;2023-04-21T11:34:47;101275.97;;;16.89;90.56
57568;BME280;43403;51.948;5.922;2023-04-21T11:37:23;101277.50;;;17.07;92.36
57568;BME280;43403;51.948;5.922;2023-04-21T11:39:58;101279.25;;;17.14;89.89
57568;BME280;43403;51.948;5.922;2023-04-21T11:42:25;101265.34;;;17.12;88.83
57568;BME280;43403;51.948;5.922;2023-04-21T11:44:55;101263.00;;;17.17;85.57
57568;BME280;43403;51.948;5.922;2023-04-21T11:47:24;101253.28;;;17.10;84.93
57568;BME280;43403;51.948;5.922;2023-04-21T11:49:54;101246.06;;;17.04;87.64
57568;BME280;43403;51.948;5.922;2023-04-21T11:52:28;101239.28;;;17.01;85.05
57568;BME280;43403;51.948;5.922;2023-04-21T11:55:10;101238.69;;;16.91;82.66
57568;BME280;43403;51.948;5.922;2023-04-21T11:57:38;101231.13;;;16.88;83.98
57568;BME280;43403;51.948;5.922;2023-04-21T12:00:08;101228.09;;;16.91;83.17
57568;BME280;43403;51.948;5.922;2023-04-21T12:02:38;101238.88;;;16.89;84.00
57568;BME280;43403;51.948;5.922;2023-04-21T12:05:07;101250.31;;;16.90;84.53
57568;BME280;43403;51.948;5.922;2023-04-21T12:07:37;101244.81;;;16.91;85.20
57568;BME280;43403;51.948;5.922;2023-04-21T12:10:17;101238.13;;;17.04;86.14
57568;BME280;43403;51.948;5.922;2023-04-21T12:12:44;101242.31;;;17.13;86.53
57568;BME280;43403;51.948;5.922;2023-04-21T12:15:16;101240.00;;;17.33;86.92
57568;BME280;43403;51.948;5.922;2023-04-21T12:17:45;101240.72;;;17.42;83.38
57568;BME280;43403;51.948;5.922;2023-04-21T12:20:19;101232.69;;;17.35;80.51
57568;BME280;43403;51.948;5.922;2023-04-21T12:22:46;101233.34;;;17.37;82.42
57568;BME280;43403;51.948;5.922;2023-04-21T12:25:13;101226.91;;;17.46;82.81
57568;BME280;43403;51.948;5.922;2023-04-21T12:27:50;101220.81;;;17.61;82.64
57568;BME280;43403;51.948;5.922;2023-04-21T12:30:18;101219.28;;;17.66;82.34
57568;BME280;43403;51.948;5.922;2023-04-21T12:32:44;101211.94;;;17.68;80.79
57568;BME280;43403;51.948;5.922;2023-04-21T12:35:13;101211.94;;;17.68;81.95
57568;BME280;43403;51.948;5.922;2023-04-21T12:37:39;65435.88;;;-145.50;100.00
57568;BME280;43403;51.948;5.922;2023-04-21T12:40:06;65435.88;;;-145.50;100.00
57568;BME280;43403;51.948;5.922;2023-04-21T12:42:33;65435.88;;;-145.50;100.00
57568;BME280;43403;51.948;5.922;2023-04-21T12:45:03;65435.88;;;-145.50;100.00
57568;BME280;43403;51.948;5.922;2023-04-21T12:47:30;65435.88;;;-145.50;100.00
57568;BME280;43403;51.948;5.922;2023-04-21T12:49:57;65435.88;;;-145.50;100.00
57568;BME280;43403;51.948;5.922;2023-04-21T12:52:23;65435.88;;;-145.50;100.00
57568;BME280;43403;51.948;5.922;2023-04-21T12:54:50;65435.88;;;-145.50;100.00
57568;BME280;43403;51.948;5.922;2023-04-21T12:57:16;65435.88;;;-145.50;100.00